createdAt,value
2023-01-29T00:00:10.038Z,20.07
2023-01-29T00:02:37.096Z,22.87
2023-01-29T00:05:26.080Z,23.03
2023-01-29T00:07:54.187Z,22.57
2023-01-29T00:10:21.725Z,22.77
2023-01-29T00:12:48.561Z,24.10
2023-01-29T00:15:16.115Z,24.90
2023-01-29T00:17:43.224Z,21.67
2023-01-29T00:20:12.737Z,21.63
2023-01-29T00:22:39.629Z,25.87
2023-01-29T00:25:08.325Z,20.67
2023-01-29T00:27:35.358Z,28.03
2023-01-29T00:30:15.425Z,25.90
2023-01-29T00:32:42.706Z,25.93
2023-01-29T00:35:12.121Z,23.60
2023-01-29T00:37:39.073Z,21.43
2023-01-29T00:40:07.656Z,23.93
2023-01-29T00:42:52.930Z,23.83
2023-01-29T00:45:19.877Z,23.17
2023-01-29T00:47:46.907Z,21.63
2023-01-29T00:50:15.707Z,23.00
2023-01-29T00:52:42.816Z,25.00
2023-01-29T00:55:11.441Z,26.17
2023-01-29T00:57:38.607Z,25.43
2023-01-29T01:00:08.098Z,23.17
2023-01-29T01:03:10.130Z,25.07
2023-01-29T01:05:39.200Z,27.47
2023-01-29T01:08:28.818Z,26.17
2023-01-29T01:11:06.298Z,28.77
2023-01-29T01:13:33.862Z,26.23
2023-01-29T01:16:01.521Z,23.40
2023-01-29T01:18:30.336Z,23.00
2023-01-29T01:20:59.961Z,24.60
2023-01-29T01:23:27.948Z,24.10
2023-01-29T01:25:55.823Z,25.13
2023-01-29T01:28:23.075Z,25.67
2023-01-29T01:30:50.330Z,20.97
2023-01-29T01:33:17.657Z,24.13
2023-01-29T01:35:44.911Z,27.87
2023-01-29T01:38:13.224Z,25.57
2023-01-29T01:40:46.034Z,27.47
2023-01-29T01:43:13.168Z,30.73
2023-01-29T01:45:40.616Z,25.63
2023-01-29T01:48:14.223Z,28.50
2023-01-29T01:50:46.105Z,26.73
2023-01-29T01:53:18.044Z,26.63
2023-01-29T01:55:49.285Z,25.73
2023-01-29T01:58:22.511Z,26.20
2023-01-29T02:00:50.420Z,26.47
2023-01-29T02:03:37.849Z,30.20
2023-01-29T02:06:24.022Z,24.27
2023-01-29T02:09:15.976Z,31.17
2023-01-29T02:11:42.900Z,26.83
2023-01-29T02:14:10.638Z,26.20
2023-01-29T02:16:38.529Z,24.63
2023-01-29T02:19:14.492Z,31.53
2023-01-29T02:21:57.712Z,28.70
2023-01-29T02:25:10.105Z,24.57
2023-01-29T02:28:12.197Z,27.73
2023-01-29T02:30:43.004Z,22.80
2023-01-29T02:33:21.406Z,26.87
2023-01-29T02:35:59.038Z,23.13
2023-01-29T02:38:34.427Z,28.97
2023-01-29T02:41:05.376Z,28.70
2023-01-29T02:43:44.812Z,27.47
2023-01-29T02:46:19.101Z,24.63
2023-01-29T02:48:53.992Z,25.53
2023-01-29T02:51:27.059Z,30.97
2023-01-29T02:54:02.851Z,29.77
2023-01-29T02:56:36.838Z,25.40
2023-01-29T02:59:08.265Z,29.93
2023-01-29T03:01:40.429Z,29.73
2023-01-29T03:04:11.875Z,26.87
2023-01-29T03:06:43.189Z,31.47
2023-01-29T03:09:17.012Z,29.03
2023-01-29T03:11:48.722Z,31.17
2023-01-29T03:14:24.593Z,25.73
2023-01-29T03:16:53.450Z,27.30
2023-01-29T03:19:28.788Z,28.53
2023-01-29T03:22:00.732Z,31.57
2023-01-29T03:24:54.584Z,27.10
2023-01-29T03:27:43.613Z,24.73
2023-01-29T03:30:35.124Z,27.80
2023-01-29T03:33:05.870Z,26.10
2023-01-29T03:35:39.899Z,23.90
2023-01-29T03:38:11.869Z,29.00
2023-01-29T03:40:46.165Z,27.27
2023-01-29T03:43:23.725Z,29.53
2023-01-29T03:46:02.044Z,29.17
2023-01-29T03:48:35.551Z,29.23
2023-01-29T03:51:12.093Z,26.53
2023-01-29T03:53:46.489Z,31.13
2023-01-29T03:56:27.384Z,31.60
2023-01-29T03:58:58.980Z,31.03
2023-01-29T04:01:31.983Z,27.00
2023-01-29T04:04:05.543Z,31.20
2023-01-29T04:06:36.028Z,31.90
2023-01-29T04:09:06.268Z,29.33
2023-01-29T04:11:38.148Z,31.63
2023-01-29T04:14:07.241Z,29.27
2023-01-29T04:16:41.372Z,29.77
2023-01-29T04:19:08.592Z,29.03
2023-01-29T04:21:37.754Z,26.20
2023-01-29T04:24:06.302Z,29.20
2023-01-29T04:26:50.568Z,28.40
2023-01-29T04:29:38.454Z,29.60
2023-01-29T04:32:15.206Z,32.20
2023-01-29T04:34:52.632Z,28.37
2023-01-29T04:37:28.250Z,30.13
2023-01-29T04:39:59.681Z,31.73
2023-01-29T04:42:31.737Z,31.70
2023-01-29T04:45:03.661Z,34.43
2023-01-29T04:47:36.965Z,31.70
2023-01-29T04:50:13.642Z,34.17
2023-01-29T04:52:49.519Z,35.73
2023-01-29T04:55:22.356Z,33.73
2023-01-29T04:57:55.924Z,34.57
2023-01-29T05:00:27.984Z,33.20
2023-01-29T05:02:57.041Z,33.13
2023-01-29T05:05:24.197Z,32.50
2023-01-29T05:07:51.517Z,29.73
2023-01-29T05:10:20.832Z,34.77
2023-01-29T05:12:51.314Z,35.93
2023-01-29T05:15:25.467Z,31.97
2023-01-29T05:17:53.943Z,30.90
2023-01-29T05:20:22.770Z,32.73
2023-01-29T05:22:49.920Z,32.77
2023-01-29T05:25:22.484Z,37.87
2023-01-29T05:28:06.434Z,33.83
2023-01-29T05:30:35.523Z,35.33
2023-01-29T05:33:02.944Z,32.20
2023-01-29T05:35:31.825Z,32.30
2023-01-29T05:37:58.966Z,32.20
2023-01-29T05:40:26.228Z,34.27
2023-01-29T05:42:53.131Z,35.33
2023-01-29T05:45:21.075Z,31.63
2023-01-29T05:47:48.034Z,38.10
2023-01-29T05:50:16.530Z,36.60
2023-01-29T05:52:44.930Z,34.97
2023-01-29T05:55:12.222Z,36.90
2023-01-29T05:57:40.891Z,34.67
2023-01-29T06:00:10.039Z,32.43
2023-01-29T06:02:36.942Z,35.73
2023-01-29T06:05:04.640Z,33.30
2023-01-29T06:07:31.588Z,32.17
2023-01-29T06:10:00.589Z,34.93
2023-01-29T06:12:27.988Z,30.90
2023-01-29T06:14:55.242Z,33.73
2023-01-29T06:17:22.180Z,33.73
2023-01-29T06:19:49.180Z,31.33
2023-01-29T06:22:16.070Z,35.47
2023-01-29T06:24:43.398Z,34.60
2023-01-29T06:27:11.693Z,34.97
2023-01-29T06:29:39.126Z,31.90
2023-01-29T06:32:06.138Z,32.27
2023-01-29T06:34:33.463Z,36.63
2023-01-29T06:37:00.525Z,33.37
2023-01-29T06:39:27.832Z,31.43
2023-01-29T06:41:54.732Z,34.83
2023-01-29T06:44:23.457Z,33.17
2023-01-29T06:46:50.408Z,35.30
2023-01-29T06:49:17.602Z,31.60
2023-01-29T06:51:44.528Z,38.57
2023-01-29T06:54:11.596Z,31.50
2023-01-29T06:56:38.508Z,31.97
2023-01-29T06:59:06.433Z,32.77
2023-01-29T07:01:36.604Z,35.73
2023-01-29T07:04:04.392Z,37.00
2023-01-29T07:06:31.569Z,35.47
2023-01-29T07:08:58.824Z,40.70
2023-01-29T07:11:25.976Z,33.57
2023-01-29T07:13:52.860Z,34.77
2023-01-29T07:16:20.149Z,36.57
2023-01-29T07:18:48.428Z,33.77
2023-01-29T07:21:15.563Z,39.23
2023-01-29T07:23:42.465Z,32.03
2023-01-29T07:26:11.431Z,32.90
2023-01-29T07:28:39.536Z,33.23
2023-01-29T07:31:08.472Z,44.23
2023-01-29T07:33:35.504Z,36.63
2023-01-29T07:36:08.097Z,43.63
2023-01-29T07:38:35.032Z,39.93
2023-01-29T07:41:03.321Z,29.80
2023-01-29T07:43:30.717Z,34.33
2023-01-29T07:46:02.291Z,39.13
2023-01-29T07:48:29.279Z,38.97
2023-01-29T07:50:57.467Z,39.47
2023-01-29T07:53:26.047Z,36.67
2023-01-29T07:55:53.324Z,37.90
2023-01-29T07:58:20.535Z,39.93
2023-01-29T08:00:47.524Z,36.53
2023-01-29T08:03:16.363Z,38.73
2023-01-29T08:05:43.847Z,34.53
2023-01-29T08:08:11.216Z,35.20
2023-01-29T08:10:40.698Z,38.33
2023-01-29T08:13:08.484Z,39.37
2023-01-29T08:15:37.899Z,43.33
2023-01-29T08:18:06.191Z,41.17
2023-01-29T08:20:33.563Z,40.77
2023-01-29T08:23:01.700Z,41.97
2023-01-29T08:25:29.307Z,42.43
2023-01-29T08:27:59.277Z,46.37
2023-01-29T08:30:28.142Z,34.97
2023-01-29T08:32:55.177Z,44.00
2023-01-29T08:35:22.433Z,46.70
2023-01-29T08:37:56.617Z,28.53
2023-01-29T08:40:23.597Z,49.07
2023-01-29T08:42:50.926Z,42.93
2023-01-29T08:45:19.229Z,42.73
2023-01-29T08:47:47.077Z,44.37
2023-01-29T08:50:14.777Z,45.47
2023-01-29T08:52:42.004Z,39.03
2023-01-29T08:55:09.799Z,45.83
2023-01-29T08:57:37.249Z,32.97
2023-01-29T09:00:05.424Z,41.53
2023-01-29T09:02:33.884Z,41.33
2023-01-29T09:05:01.158Z,40.67
2023-01-29T09:07:29.908Z,40.77
2023-01-29T09:09:56.859Z,38.87
2023-01-29T09:12:23.814Z,41.40
2023-01-29T09:14:51.109Z,40.93
2023-01-29T09:17:18.006Z,37.87
2023-01-29T09:19:46.936Z,38.87
2023-01-29T09:22:13.838Z,50.73
2023-01-29T09:24:41.185Z,40.07
2023-01-29T09:27:10.016Z,47.60
2023-01-29T09:29:37.459Z,47.47
2023-01-29T09:32:04.871Z,37.70
2023-01-29T09:34:32.162Z,43.00
2023-01-29T09:37:00.395Z,45.27
2023-01-29T09:39:27.673Z,42.93
2023-01-29T09:42:02.094Z,52.67
2023-01-29T09:44:43.038Z,43.63
2023-01-29T09:47:14.676Z,46.30
2023-01-29T09:49:47.016Z,45.13
2023-01-29T09:52:20.014Z,45.17
2023-01-29T09:54:55.025Z,46.13
2023-01-29T09:57:27.237Z,51.40
2023-01-29T09:59:55.323Z,46.37
2023-01-29T10:02:41.642Z,49.23
2023-01-29T10:05:26.510Z,43.10
2023-01-29T10:08:14.676Z,40.97
2023-01-29T10:10:50.591Z,42.50
2023-01-29T10:13:27.534Z,42.60
2023-01-29T10:16:07.737Z,42.87
2023-01-29T10:19:11.353Z,42.53
2023-01-29T10:22:00.571Z,51.40
2023-01-29T10:24:38.672Z,45.50
2023-01-29T10:27:14.669Z,45.37
2023-01-29T10:29:43.594Z,41.90
2023-01-29T10:32:16.419Z,43.97
2023-01-29T10:34:48.738Z,42.27
2023-01-29T10:37:18.703Z,39.67
2023-01-29T10:39:47.770Z,39.97
2023-01-29T10:42:26.750Z,34.73
2023-01-29T10:45:21.300Z,44.40
2023-01-29T10:48:06.149Z,36.60
2023-01-29T10:50:47.445Z,44.90
2023-01-29T10:53:32.389Z,39.47
2023-01-29T10:56:22.285Z,40.27
2023-01-29T10:58:53.981Z,40.90
2023-01-29T11:01:21.154Z,40.47
2023-01-29T11:03:57.085Z,47.23
2023-01-29T11:06:28.502Z,50.17
2023-01-29T11:09:01.059Z,44.77
2023-01-29T11:11:36.286Z,43.93
2023-01-29T11:14:09.284Z,41.13
2023-01-29T11:16:41.344Z,45.90
2023-01-29T11:19:08.807Z,47.83
2023-01-29T11:21:53.207Z,38.80
2023-01-29T11:24:21.142Z,43.87
2023-01-29T11:26:51.057Z,44.13
2023-01-29T11:29:46.175Z,46.43
2023-01-29T11:32:15.675Z,39.07
2023-01-29T11:35:05.444Z,43.53
2023-01-29T11:37:35.149Z,46.33
2023-01-29T11:40:03.399Z,46.10
2023-01-29T11:42:33.785Z,45.83
2023-01-29T11:45:01.246Z,48.80
2023-01-29T11:47:29.934Z,53.30
2023-01-29T11:49:58.506Z,52.40
2023-01-29T11:52:34.926Z,44.07
2023-01-29T11:55:05.778Z,48.83
2023-01-29T11:57:37.066Z,39.17
2023-01-29T12:00:06.843Z,31.83
2023-01-29T12:02:37.136Z,46.30
2023-01-29T12:05:07.707Z,35.97
2023-01-29T12:07:40.698Z,44.53
2023-01-29T12:10:31.151Z,47.57
2023-01-29T12:13:06.750Z,45.13
2023-01-29T12:15:34.267Z,42.17
2023-01-29T12:18:13.355Z,44.23
2023-01-29T12:20:45.277Z,46.50
2023-01-29T12:23:25.635Z,42.27
2023-01-29T12:26:01.082Z,45.83
2023-01-29T12:28:42.641Z,44.33
2023-01-29T12:31:20.248Z,44.03
2023-01-29T12:33:52.498Z,43.97
2023-01-29T12:36:26.042Z,37.80
2023-01-29T12:38:53.931Z,39.60
2023-01-29T12:41:30.468Z,43.13
2023-01-29T12:44:03.810Z,35.97
2023-01-29T12:46:37.624Z,35.87
2023-01-29T12:49:13.819Z,37.03
2023-01-29T12:51:49.394Z,45.43
2023-01-29T12:54:23.660Z,40.67
2023-01-29T12:56:53.365Z,40.33
2023-01-29T12:59:29.348Z,38.67
2023-01-29T13:01:59.681Z,37.93
2023-01-29T13:04:36.867Z,41.10
2023-01-29T13:07:12.247Z,37.27
2023-01-29T13:09:45.597Z,39.53
2023-01-29T13:12:15.837Z,41.77
2023-01-29T13:14:48.024Z,44.37
2023-01-29T13:17:21.406Z,39.80
2023-01-29T13:19:51.808Z,39.17
2023-01-29T13:22:23.382Z,37.07
2023-01-29T13:25:03.619Z,40.40
2023-01-29T13:27:33.914Z,40.47
2023-01-29T13:30:03.625Z,40.13
2023-01-29T13:32:32.394Z,35.43
2023-01-29T13:35:02.875Z,30.93
2023-01-29T13:37:32.932Z,33.73
2023-01-29T13:40:02.701Z,32.17
2023-01-29T13:42:40.668Z,32.27
2023-01-29T13:45:20.385Z,37.20
2023-01-29T13:47:48.385Z,33.93
2023-01-29T13:50:24.994Z,35.23
2023-01-29T13:52:57.243Z,36.77
2023-01-29T13:55:31.623Z,34.53
2023-01-29T13:57:59.424Z,32.80
2023-01-29T14:00:58.990Z,31.60
2023-01-29T14:04:04.560Z,29.00
2023-01-29T14:06:52.643Z,33.23
2023-01-29T14:09:56.631Z,28.03
2023-01-29T14:12:36.780Z,29.37
2023-01-29T14:15:20.821Z,30.87
2023-01-29T14:18:21.445Z,29.83
2023-01-29T14:20:59.043Z,31.37
2023-01-29T14:23:36.564Z,31.43
2023-01-29T14:26:06.461Z,26.97
2023-01-29T14:28:35.225Z,31.17
2023-01-29T14:31:03.886Z,29.73
2023-01-29T14:33:37.481Z,30.60
2023-01-29T14:36:06.973Z,36.27
2023-01-29T14:38:35.019Z,29.20
2023-01-29T14:41:15.856Z,24.03
2023-01-29T14:43:42.939Z,28.83
2023-01-29T14:46:47.012Z,26.97
2023-01-29T14:49:48.515Z,27.20
2023-01-29T14:52:18.296Z,26.90
2023-01-29T14:54:47.164Z,25.67
2023-01-29T14:57:18.250Z,21.37
2023-01-29T14:59:53.480Z,23.30
2023-01-29T15:02:27.437Z,20.17
2023-01-29T15:05:00.790Z,27.10
2023-01-29T15:07:40.492Z,24.07
2023-01-29T15:10:24.539Z,23.90
2023-01-29T15:12:58.546Z,18.03
2023-01-29T15:15:36.551Z,23.23
2023-01-29T15:18:07.278Z,23.60
2023-01-29T15:20:37.489Z,20.47
2023-01-29T15:23:24.105Z,19.13
2023-01-29T15:25:54.135Z,20.77
2023-01-29T15:28:22.162Z,21.07
2023-01-29T15:30:54.046Z,17.13
2023-01-29T15:33:21.890Z,20.17
2023-01-29T15:36:06.885Z,22.63
2023-01-29T15:38:35.247Z,17.57
2023-01-29T15:41:04.507Z,22.40
2023-01-29T15:43:35.492Z,23.10
2023-01-29T15:46:06.415Z,19.97
2023-01-29T15:48:37.687Z,21.47
2023-01-29T15:51:10.964Z,24.60
2023-01-29T15:53:42.722Z,18.50
2023-01-29T15:56:11.457Z,19.23
2023-01-29T15:58:40.028Z,21.23
2023-01-29T16:01:07.282Z,23.90
2023-01-29T16:03:35.382Z,26.67
2023-01-29T16:06:03.050Z,20.57
2023-01-29T16:08:31.841Z,22.47
2023-01-29T16:11:01.709Z,26.23
2023-01-29T16:13:31.258Z,22.43
2023-01-29T16:15:59.994Z,23.27
2023-01-29T16:18:32.154Z,26.00
2023-01-29T16:21:02.828Z,28.47
2023-01-29T16:23:37.320Z,22.20
2023-01-29T16:26:08.171Z,27.03
2023-01-29T16:28:41.134Z,31.40
2023-01-29T16:31:10.030Z,29.37
2023-01-29T16:33:40.783Z,28.27
2023-01-29T16:36:16.988Z,25.00
2023-01-29T16:38:49.056Z,23.33
2023-01-29T16:41:28.716Z,31.00
2023-01-29T16:43:57.544Z,23.33
2023-01-29T16:46:31.972Z,26.03
2023-01-29T16:48:59.343Z,29.87
2023-01-29T16:51:28.942Z,28.90
2023-01-29T16:53:59.441Z,27.53
2023-01-29T16:56:33.004Z,31.80
2023-01-29T16:59:02.073Z,28.10
2023-01-29T17:01:30.479Z,29.53
2023-01-29T17:04:07.523Z,28.63
2023-01-29T17:06:36.571Z,24.80
2023-01-29T17:09:06.999Z,27.50
2023-01-29T17:11:37.654Z,27.57
2023-01-29T17:14:06.809Z,26.00
2023-01-29T17:16:36.053Z,27.73
2023-01-29T17:19:15.157Z,23.60
2023-01-29T17:21:42.440Z,24.13
2023-01-29T17:24:10.925Z,20.70
2023-01-29T17:26:38.815Z,24.10
2023-01-29T17:29:08.197Z,25.97
2023-01-29T17:31:35.658Z,24.73
2023-01-29T17:34:02.892Z,21.07
2023-01-29T17:36:30.330Z,23.67
2023-01-29T17:38:57.350Z,26.77
2023-01-29T17:41:28.736Z,26.80
2023-01-29T17:43:55.639Z,20.13
2023-01-29T17:46:22.759Z,23.73
2023-01-29T17:48:50.405Z,19.97
2023-01-29T17:51:18.304Z,20.20
2023-01-29T17:53:48.536Z,23.80
2023-01-29T17:56:18.062Z,21.97
2023-01-29T17:58:46.929Z,21.87
2023-01-29T18:01:14.031Z,20.43
2023-01-29T18:03:41.371Z,24.97
2023-01-29T18:06:09.880Z,21.27
2023-01-29T18:08:39.868Z,20.87
2023-01-29T18:11:07.227Z,24.87
2023-01-29T18:13:36.383Z,31.23
2023-01-29T18:16:05.338Z,26.37
2023-01-29T18:18:32.783Z,24.87
2023-01-29T18:20:59.638Z,26.93
2023-01-29T18:23:27.786Z,24.33
2023-01-29T18:25:57.701Z,26.13
2023-01-29T18:28:25.435Z,28.47
2023-01-29T18:30:52.961Z,25.97
2023-01-29T18:33:23.069Z,28.27
2023-01-29T18:35:50.575Z,23.53
2023-01-29T18:38:18.234Z,26.60
2023-01-29T18:40:45.372Z,20.97
2023-01-29T18:43:13.725Z,28.07
2023-01-29T18:45:40.795Z,22.50
2023-01-29T18:48:08.266Z,25.80
2023-01-29T18:50:36.808Z,25.17
2023-01-29T18:53:04.826Z,24.10
2023-01-29T18:55:31.868Z,18.67
2023-01-29T18:58:27.849Z,22.10
2023-01-29T19:00:48.339Z,22.67
2023-01-29T19:03:16.051Z,22.80
2023-01-29T19:05:44.349Z,23.80
2023-01-29T19:08:11.648Z,22.93
2023-01-29T19:10:39.319Z,21.50
2023-01-29T19:13:10.435Z,26.83
2023-01-29T19:15:41.263Z,31.43
2023-01-29T19:18:08.293Z,34.13
2023-01-29T19:20:35.138Z,29.47
2023-01-29T19:23:03.840Z,27.13
2023-01-29T19:25:30.926Z,27.57
2023-01-29T19:27:58.358Z,19.67
2023-01-29T19:30:25.276Z,25.07
2023-01-29T19:32:53.291Z,23.67
2023-01-29T19:35:20.329Z,23.10
2023-01-29T19:37:47.911Z,24.07
2023-01-29T19:40:16.924Z,26.27
2023-01-29T19:42:44.309Z,25.43
2023-01-29T19:45:11.567Z,25.00
2023-01-29T19:47:39.549Z,24.07
2023-01-29T19:50:07.381Z,28.50
2023-01-29T19:52:51.223Z,26.03
2023-01-29T19:55:21.104Z,28.30
2023-01-29T19:57:48.787Z,22.93
2023-01-29T20:00:17.510Z,29.80
2023-01-29T20:02:45.007Z,34.03
2023-01-29T20:05:13.022Z,23.73
2023-01-29T20:07:42.717Z,29.50
2023-01-29T20:10:17.097Z,22.33
2023-01-29T20:12:46.583Z,31.43
2023-01-29T20:15:14.345Z,27.17
2023-01-29T20:17:41.770Z,25.07
2023-01-29T20:20:10.242Z,24.87
2023-01-29T20:22:37.771Z,24.67
2023-01-29T20:25:05.062Z,25.67
2023-01-29T20:27:32.332Z,21.40
2023-01-29T20:30:00.672Z,26.80
2023-01-29T20:32:28.016Z,26.47
2023-01-29T20:34:55.011Z,27.77
2023-01-29T20:37:22.245Z,28.40
2023-01-29T20:39:49.184Z,22.93
2023-01-29T20:42:16.356Z,26.57
2023-01-29T20:44:43.361Z,21.93
2023-01-29T20:47:12.483Z,27.90
2023-01-29T20:49:39.493Z,25.20
2023-01-29T20:52:07.877Z,19.17
2023-01-29T20:54:34.852Z,25.83
2023-01-29T20:57:02.322Z,26.37
2023-01-29T20:59:29.403Z,27.63
2023-01-29T21:01:56.750Z,33.87
2023-01-29T21:04:25.557Z,30.33
2023-01-29T21:06:52.947Z,25.37
2023-01-29T21:09:20.483Z,28.07
2023-01-29T21:11:48.020Z,26.20
2023-01-29T21:14:14.957Z,25.73
2023-01-29T21:16:42.312Z,24.47
2023-01-29T21:19:09.981Z,29.60
2023-01-29T21:21:38.602Z,25.93
2023-01-29T21:24:06.074Z,20.73
2023-01-29T21:26:33.432Z,30.23
2023-01-29T21:29:00.419Z,29.40
2023-01-29T21:31:27.824Z,28.77
2023-01-29T21:33:54.748Z,31.40
2023-01-29T21:36:22.016Z,29.57
2023-01-29T21:38:50.252Z,28.47
2023-01-29T21:41:17.519Z,27.97
2023-01-29T21:43:45.060Z,29.00
2023-01-29T21:46:12.546Z,30.30
2023-01-29T21:48:40.312Z,29.53
2023-01-29T21:51:07.990Z,30.90
2023-01-29T21:53:36.655Z,31.37
2023-01-29T21:56:06.470Z,29.70
2023-01-29T21:58:33.761Z,28.07
2023-01-29T22:01:35.926Z,27.00
2023-01-29T22:03:48.055Z,31.33
2023-01-29T22:06:15.421Z,31.23
2023-01-29T22:08:42.382Z,25.57
2023-01-29T22:11:11.345Z,32.63
2023-01-29T22:13:38.517Z,31.53
2023-01-29T22:16:06.485Z,34.73
2023-01-29T22:18:33.617Z,33.63
2023-01-29T22:21:03.334Z,35.97
2023-01-29T22:23:30.777Z,33.57
2023-01-29T22:26:02.925Z,29.63
2023-01-29T22:28:31.273Z,35.93
2023-01-29T22:31:01.818Z,29.00
2023-01-29T22:33:28.801Z,32.10
2023-01-29T22:35:56.800Z,26.73
2023-01-29T22:38:23.994Z,31.47
2023-01-29T22:40:51.539Z,28.97
2023-01-29T22:43:18.710Z,26.13
2023-01-29T22:45:48.036Z,25.77
2023-01-29T22:48:15.441Z,27.63
2023-01-29T22:50:42.732Z,27.17
2023-01-29T22:53:09.727Z,26.10
2023-01-29T22:55:37.306Z,26.83
2023-01-29T22:58:04.228Z,25.87
2023-01-29T23:00:31.353Z,23.93
2023-01-29T23:02:59.728Z,22.43
2023-01-29T23:05:27.075Z,26.77
2023-01-29T23:07:54.046Z,28.60
2023-01-29T23:10:21.339Z,28.63
2023-01-29T23:12:48.357Z,30.50
2023-01-29T23:15:15.733Z,26.90
2023-01-29T23:17:42.650Z,27.90
2023-01-29T23:20:12.856Z,28.67
2023-01-29T23:22:39.896Z,25.30
2023-01-29T23:25:07.859Z,24.90
2023-01-29T23:27:34.967Z,24.80
2023-01-29T23:30:02.283Z,21.77
2023-01-29T23:32:29.439Z,25.30
2023-01-29T23:34:56.780Z,19.57
2023-01-29T23:37:25.451Z,24.20
2023-01-29T23:39:52.860Z,30.30
2023-01-29T23:42:19.870Z,22.63
2023-01-29T23:44:47.159Z,24.40
2023-01-29T23:47:14.176Z,22.53
2023-01-29T23:49:41.416Z,23.93
2023-01-29T23:52:08.431Z,31.00
2023-01-29T23:54:36.879Z,23.23
2023-01-29T23:57:03.948Z,31.27
2023-01-29T23:59:31.198Z,22.57
